Time;durP1;ratioP1;P1;durP2;ratioP2;P2;SDS_P1;SDS_P2;PMS_P1;PMS_P2;Temp;Humidity;BMP_temperature;BMP_pressure;BME280_temperature;BME280_humidity;BME280_pressure;Samples;Min_cycle;Max_cycle;Signal;HPM_P1;HPM_P2
2021/10/03 00:00:16;;;;;;;4.75;3.03;;;8.60;99.90;;;;;;4342235;32;20090;-65
2021/10/03 00:02:44;;;;;;;7.62;3.47;;;8.50;99.90;;;;;;4325864;32;20078;-66
2021/10/03 00:05:11;;;;;;;4.30;3.12;;;8.50;99.90;;;;;;4325752;32;20093;-65
2021/10/03 00:07:42;;;;;;;5.95;3.70;;;8.60;99.90;;;;;;4325427;32;20082;-65
2021/10/03 00:10:09;;;;;;;5.87;3.40;;;8.60;99.90;;;;;;4325530;32;20108;-66
2021/10/03 00:12:35;;;;;;;5.40;3.47;;;8.60;99.90;;;;;;4337240;32;20078;-65
2021/10/03 00:15:02;;;;;;;6.72;3.72;;;8.50;99.90;;;;;;4349921;32;20089;-66
2021/10/03 00:17:28;;;;;;;5.18;3.10;;;8.50;99.90;;;;;;4337257;32;20153;-65
2021/10/03 00:19:55;;;;;;;5.35;3.25;;;8.50;99.90;;;;;;4349726;32;20092;-66
2021/10/03 00:22:21;;;;;;;5.87;3.30;;;8.40;99.90;;;;;;4325155;32;20082;-65
2021/10/03 00:24:48;;;;;;;7.47;3.58;;;8.50;99.90;;;;;;4349176;32;20075;-66
2021/10/03 00:27:14;;;;;;;5.43;3.30;;;8.50;99.90;;;;;;4349138;32;20149;-66
2021/10/03 00:29:41;;;;;;;5.50;3.30;;;8.40;99.90;;;;;;4324304;32;20093;-65
2021/10/03 00:32:07;;;;;;;5.47;3.37;;;8.50;99.90;;;;;;4337071;32;20595;-65
2021/10/03 00:34:33;;;;;;;5.95;3.87;;;8.40;99.90;;;;;;4337179;32;20086;-65
2021/10/03 00:37:00;;;;;;;6.07;3.67;;;8.40;99.90;;;;;;4363243;32;20074;-65
2021/10/03 00:39:26;;;;;;;7.57;3.87;;;8.40;99.90;;;;;;4349185;32;20158;-65
2021/10/03 00:41:53;;;;;;;6.40;3.42;;;8.40;99.90;;;;;;4349507;32;20085;-66
2021/10/03 00:44:20;;;;;;;4.82;3.08;;;8.40;99.90;;;;;;4312327;32;20086;-66
2021/10/03 00:46:46;;;;;;;4.72;3.17;;;8.40;99.90;;;;;;4312429;32;20452;-65
2021/10/03 00:49:12;;;;;;;5.20;3.30;;;8.40;99.90;;;;;;4312931;32;20090;-65
2021/10/03 00:51:39;;;;;;;5.55;3.12;;;8.30;99.90;;;;;;4337026;32;20148;-65
2021/10/03 00:54:05;;;;;;;5.85;3.33;;;8.30;99.90;;;;;;4349270;32;20083;-65
2021/10/03 00:56:31;;;;;;;6.00;3.15;;;8.30;99.90;;;;;;4351489;32;20066;-65
2021/10/03 00:58:57;;;;;;;5.75;3.15;;;8.30;99.90;;;;;;4340585;32;20069;-65
2021/10/03 01:01:24;;;;;;;4.43;2.72;;;8.30;99.90;;;;;;4325600;32;20082;-65
2021/10/03 01:03:50;;;;;;;5.55;3.10;;;8.30;99.90;;;;;;4325830;32;20067;-65
2021/10/03 01:06:17;;;;;;;5.43;3.30;;;8.30;99.90;;;;;;4336804;32;20075;-66
2021/10/03 01:08:43;;;;;;;6.07;3.55;;;8.40;99.90;;;;;;4312857;32;20069;-64
2021/10/03 01:13:49;;;;;;;5.32;3.20;;;8.30;99.90;;;;;;3826883;37;20066;-66
2021/10/03 01:16:17;;;;;;;8.40;3.75;;;8.40;99.90;;;;;;4366029;32;20083;-64
2021/10/03 01:18:43;;;;;;;7.40;4.30;;;8.30;99.90;;;;;;4378173;32;20085;-65
2021/10/03 01:21:09;;;;;;;8.40;4.70;;;8.30;99.90;;;;;;4366145;32;20165;-66
2021/10/03 01:23:35;;;;;;;7.80;4.03;;;8.20;99.90;;;;;;4377838;32;20158;-65
2021/10/03 01:26:02;;;;;;;6.70;4.07;;;8.20;99.90;;;;;;4352816;32;20085;-66
2021/10/03 01:28:28;;;;;;;6.65;4.03;;;8.30;99.90;;;;;;4390661;32;20097;-65
2021/10/03 01:30:55;;;;;;;6.62;3.85;;;8.20;99.90;;;;;;4375338;32;20092;-66
2021/10/03 01:33:23;;;;;;;6.43;3.50;;;8.20;99.90;;;;;;4350357;32;20151;-65
2021/10/03 01:35:50;;;;;;;7.15;3.72;;;8.20;99.90;;;;;;4338388;32;20532;-65
2021/10/03 01:38:16;;;;;;;6.65;4.07;;;8.20;99.90;;;;;;4363005;32;20109;-65
2021/10/03 01:40:43;;;;;;;5.85;3.05;;;8.20;99.90;;;;;;4338250;32;20093;-65
2021/10/03 01:43:09;;;;;;;5.10;3.45;;;8.20;99.90;;;;;;4362845;32;20476;-66
2021/10/03 01:45:36;;;;;;;6.22;3.55;;;8.20;99.90;;;;;;4350289;32;20097;-64
2021/10/03 01:48:15;;;;;;;6.25;3.55;;;8.20;99.90;;;;;;4362969;32;20091;-66
2021/10/03 01:50:56;;;;;;;4.65;3.15;;;8.20;99.90;;;;;;4351979;32;20088;-65
2021/10/03 01:53:29;;;;;;;6.07;3.55;;;8.20;99.90;;;;;;4342070;32;20179;-65
2021/10/03 01:55:55;;;;;;;5.80;3.75;;;8.10;99.90;;;;;;4366568;32;20461;-65
2021/10/03 01:58:25;;;;;;;5.90;3.70;;;8.10;99.90;;;;;;4352028;32;20082;-66
2021/10/03 02:00:54;;;;;;;5.10;3.30;;;8.20;99.90;;;;;;4363074;32;20066;-65
2021/10/03 02:03:21;;;;;;;6.20;3.20;;;8.10;99.90;;;;;;4362608;32;20647;-65
2021/10/03 02:05:47;;;;;;;5.12;3.37;;;8.10;99.90;;;;;;4350050;32;20162;-65
2021/10/03 02:08:15;;;;;;;5.70;3.35;;;8.20;99.90;;;;;;4350182;32;20170;-66
2021/10/03 02:10:45;;;;;;;5.20;3.65;;;8.20;99.90;;;;;;4338222;32;20160;-65
2021/10/03 02:13:12;;;;;;;7.80;3.72;;;8.10;99.90;;;;;;4362832;32;20082;-65
2021/10/03 02:15:41;;;;;;;6.45;3.60;;;8.10;99.90;;;;;;4349775;32;20065;-65
2021/10/03 02:18:10;;;;;;;6.55;3.60;;;8.10;99.90;;;;;;4350374;32;20078;-65
2021/10/03 02:20:36;;;;;;;6.12;3.45;;;8.10;99.90;;;;;;4363015;32;20513;-66
2021/10/03 02:23:04;;;;;;;5.25;3.28;;;8.30;99.90;;;;;;4337344;32;20093;-65
2021/10/03 02:25:30;;;;;;;8.45;3.78;;;8.30;99.90;;;;;;4352106;32;20161;-65
2021/10/03 02:27:57;;;;;;;6.05;3.67;;;8.30;99.90;;;;;;4352406;32;20088;-66
2021/10/03 02:30:24;;;;;;;5.30;2.97;;;8.20;99.90;;;;;;4352465;32;20155;-65
2021/10/03 02:32:50;;;;;;;5.40;3.55;;;8.10;99.90;;;;;;4327830;32;20078;-65
2021/10/03 02:35:17;;;;;;;6.62;3.37;;;8.10;99.90;;;;;;4364430;32;20105;-65
2021/10/03 02:37:43;;;;;;;6.40;3.33;;;8.10;99.90;;;;;;4327951;32;20077;-66
2021/10/03 02:40:17;;;;;;;5.22;3.40;;;8.10;99.90;;;;;;4327607;32;20102;-65
2021/10/03 02:42:44;;;;;;;6.57;3.28;;;8.20;99.90;;;;;;4351664;32;20174;-66
2021/10/03 02:45:10;;;;;;;7.20;3.60;;;8.00;99.90;;;;;;4353543;32;20077;-65
2021/10/03 02:47:37;;;;;;;9.00;4.80;;;8.20;99.90;;;;;;4329003;32;20101;-66
2021/10/03 02:50:04;;;;;;;5.75;3.40;;;8.10;99.90;;;;;;4327873;32;20086;-66
2021/10/03 02:52:30;;;;;;;6.82;3.80;;;8.10;99.90;;;;;;4352277;32;20070;-65
2021/10/03 02:54:57;;;;;;;5.72;3.75;;;8.20;99.90;;;;;;4364123;32;20453;-66
2021/10/03 02:57:23;;;;;;;8.07;3.40;;;8.10;99.90;;;;;;4327119;32;20081;-65
2021/10/03 02:59:49;;;;;;;4.75;2.60;;;8.20;99.90;;;;;;4377610;32;20066;-66
2021/10/03 03:02:15;;;;;;;5.47;3.33;;;8.20;99.90;;;;;;4364606;32;20107;-64
2021/10/03 03:04:42;;;;;;;5.55;3.62;;;8.10;99.90;;;;;;4364256;32;20149;-66
2021/10/03 03:07:08;;;;;;;5.32;3.42;;;8.10;99.90;;;;;;4326975;32;20533;-65
2021/10/03 03:09:34;;;;;;;6.62;3.45;;;8.10;99.90;;;;;;4364431;32;20535;-65
2021/10/03 03:12:01;;;;;;;5.37;3.42;;;8.20;99.90;;;;;;4377563;32;20476;-65
2021/10/03 03:14:27;;;;;;;5.03;3.05;;;8.10;99.90;;;;;;4326874;32;20077;-66
2021/10/03 03:16:53;;;;;;;5.72;3.60;;;8.10;99.90;;;;;;4339748;32;20074;-65
2021/10/03 03:19:20;;;;;;;5.12;3.10;;;8.10;99.90;;;;;;4351393;32;20162;-64
2021/10/03 03:21:46;;;;;;;7.07;3.30;;;8.20;99.90;;;;;;4364314;32;20081;-66
2021/10/03 03:24:13;;;;;;;5.70;3.35;;;8.20;99.90;;;;;;4339595;32;20070;-65
2021/10/03 03:26:40;;;;;;;5.50;3.45;;;8.10;99.90;;;;;;4363724;32;20077;-65
2021/10/03 03:29:06;;;;;;;4.97;3.17;;;8.20;99.90;;;;;;4338691;32;20070;-65
2021/10/03 03:31:32;;;;;;;7.47;3.55;;;8.20;99.90;;;;;;4351091;32;20080;-65
2021/10/03 03:33:59;;;;;;;8.23;3.65;;;8.10;99.90;;;;;;4338811;32;20108;-65
2021/10/03 03:36:25;;;;;;;6.03;3.92;;;8.20;99.90;;;;;;4362769;32;20467;-66
2021/10/03 03:38:51;;;;;;;5.97;3.78;;;8.20;99.90;;;;;;4339508;32;20497;-65
2021/10/03 03:41:17;;;;;;;6.10;3.97;;;8.20;99.90;;;;;;4377464;32;20603;-65
2021/10/03 03:43:43;;;;;;;6.62;3.47;;;8.20;99.90;;;;;;4365173;32;20094;-65
2021/10/03 03:46:10;;;;;;;6.78;3.65;;;8.10;99.90;;;;;;4353943;32;20066;-65
2021/10/03 03:48:37;;;;;;;7.53;3.60;;;8.20;99.90;;;;;;4327971;32;20524;-66
2021/10/03 03:51:04;;;;;;;5.97;3.30;;;8.20;99.90;;;;;;4326496;32;20568;-65
2021/10/03 03:53:33;;;;;;;5.15;3.50;;;8.20;99.90;;;;;;4363696;32;20106;-65
2021/10/03 03:56:00;;;;;;;5.60;3.60;;;8.20;99.90;;;;;;4350838;32;20070;-64
2021/10/03 03:58:26;;;;;;;6.80;3.65;;;8.20;99.90;;;;;;4339128;32;20448;-65
2021/10/03 04:00:52;;;;;;;7.05;3.35;;;8.20;99.90;;;;;;4351478;32;20074;-64
2021/10/03 04:03:18;;;;;;;7.80;3.92;;;8.30;99.90;;;;;;4377390;32;20078;-65
2021/10/03 04:05:45;;;;;;;6.32;3.50;;;8.20;99.90;;;;;;4377568;32;20597;-66
2021/10/03 04:08:11;;;;;;;6.10;3.83;;;8.20;99.90;;;;;;4377521;32;20093;-65
2021/10/03 04:10:37;;;;;;;5.97;3.60;;;8.20;99.90;;;;;;4364061;32;20162;-65
2021/10/03 04:13:03;;;;;;;6.60;3.62;;;8.30;99.90;;;;;;4376736;32;20524;-64
2021/10/03 04:15:29;;;;;;;6.70;4.07;;;8.30;99.90;;;;;;4363177;32;20077;-65
2021/10/03 04:17:55;;;;;;;6.20;3.75;;;8.30;99.90;;;;;;4363272;32;20467;-65
2021/10/03 04:20:22;;;;;;;5.37;3.40;;;8.40;99.90;;;;;;4377079;32;20186;-67
2021/10/03 04:22:48;;;;;;;6.97;3.97;;;8.30;99.90;;;;;;4362769;32;20148;-65
2021/10/03 04:25:14;;;;;;;5.82;3.75;;;8.40;99.90;;;;;;4362699;32;20066;-65
2021/10/03 04:27:40;;;;;;;9.15;3.72;;;8.40;99.90;;;;;;4350336;32;20518;-66
2021/10/03 04:30:07;;;;;;;6.80;3.72;;;8.40;99.90;;;;;;4363349;32;20088;-64
2021/10/03 04:32:34;;;;;;;8.35;3.97;;;8.40;99.90;;;;;;4350636;32;20098;-66
2021/10/03 04:35:00;;;;;;;8.45;3.90;;;8.40;99.90;;;;;;4337801;32;20078;-65
2021/10/03 04:37:27;;;;;;;7.00;3.40;;;8.40;99.90;;;;;;4376859;32;20068;-66
2021/10/03 04:39:53;;;;;;;6.65;3.87;;;8.50;99.90;;;;;;4362584;32;20090;-66
2021/10/03 04:42:20;;;;;;;8.13;3.80;;;8.40;99.90;;;;;;4350638;32;20071;-65
2021/10/03 04:44:47;;;;;;;4.95;3.20;;;8.40;99.90;;;;;;4351111;32;20088;-65
2021/10/03 04:47:14;;;;;;;6.55;3.62;;;8.40;99.90;;;;;;4350030;32;20531;-65
2021/10/03 04:49:40;;;;;;;5.25;3.28;;;8.40;99.90;;;;;;4338174;32;20089;-65
2021/10/03 04:52:06;;;;;;;5.62;3.60;;;8.40;99.90;;;;;;4325418;32;20183;-66
2021/10/03 04:54:33;;;;;;;4.53;3.50;;;8.50;99.90;;;;;;4363108;32;20113;-65
2021/10/03 04:56:59;;;;;;;6.10;3.90;;;8.50;99.90;;;;;;4337618;32;20081;-66
2021/10/03 04:59:26;;;;;;;9.13;4.30;;;8.50;99.90;;;;;;4338053;32;20158;-65
2021/10/03 05:01:52;;;;;;;5.60;3.60;;;8.50;99.90;;;;;;4338065;32;20090;-65
2021/10/03 05:04:18;;;;;;;6.72;4.15;;;8.50;99.90;;;;;;4362350;32;20078;-66
2021/10/03 05:06:44;;;;;;;7.70;4.50;;;8.60;99.90;;;;;;4376394;32;20500;-65
2021/10/03 05:09:10;;;;;;;6.53;3.87;;;8.50;99.90;;;;;;4350659;32;20178;-64
2021/10/03 05:11:37;;;;;;;7.12;4.47;;;8.50;99.90;;;;;;4350184;32;20093;-65
2021/10/03 05:14:06;;;;;;;9.02;3.50;;;8.60;99.90;;;;;;4362178;32;20166;-65
2021/10/03 05:16:34;;;;;;;7.80;4.12;;;8.60;99.90;;;;;;4363248;32;20102;-65
2021/10/03 05:19:01;;;;;;;8.73;4.05;;;8.60;99.90;;;;;;4338179;32;20468;-65
2021/10/03 05:21:28;;;;;;;8.20;4.28;;;8.60;99.90;;;;;;4325747;32;20081;-65
2021/10/03 05:23:54;;;;;;;7.55;3.90;;;8.70;99.90;;;;;;4362274;32;20066;-65
2021/10/03 05:26:20;;;;;;;7.20;4.00;;;8.80;99.90;;;;;;4362232;32;20605;-66
2021/10/03 05:28:47;;;;;;;7.18;3.95;;;8.80;99.90;;;;;;4362670;32;20074;-65
2021/10/03 05:31:13;;;;;;;6.85;3.95;;;8.80;99.90;;;;;;4362665;32;20081;-64
2021/10/03 05:33:39;;;;;;;5.22;3.50;;;8.80;99.90;;;;;;4350236;32;20080;-66
2021/10/03 05:36:06;;;;;;;5.43;3.35;;;8.90;99.90;;;;;;4349729;32;20085;-65
2021/10/03 05:38:32;;;;;;;6.78;3.47;;;8.90;99.90;;;;;;4337840;32;20078;-66
2021/10/03 05:40:59;;;;;;;6.62;3.75;;;9.00;99.90;;;;;;4325516;32;20530;-65
2021/10/03 05:43:25;;;;;;;5.37;3.72;;;9.10;99.90;;;;;;4325253;32;20086;-66
2021/10/03 05:45:51;;;;;;;7.25;3.87;;;9.00;99.90;;;;;;4362279;32;20433;-65
2021/10/03 05:48:19;;;;;;;7.43;3.95;;;9.00;99.90;;;;;;4337855;32;20102;-66
2021/10/03 05:50:45;;;;;;;7.97;4.47;;;9.00;99.90;;;;;;4362638;32;20090;-66
2021/10/03 05:53:11;;;;;;;6.00;4.15;;;9.10;99.90;;;;;;4313133;32;20159;-65
2021/10/03 05:55:38;;;;;;;7.68;4.10;;;9.20;99.90;;;;;;4350058;32;20517;-64
2021/10/03 05:58:04;;;;;;;7.35;4.12;;;9.10;99.90;;;;;;4350280;32;20094;-65
2021/10/03 06:00:30;;;;;;;7.70;4.57;;;9.10;99.90;;;;;;4340337;32;20086;-66
2021/10/03 06:02:57;;;;;;;6.35;3.87;;;9.20;99.90;;;;;;4379178;32;20081;-65
2021/10/03 06:05:23;;;;;;;6.78;4.35;;;9.30;99.90;;;;;;4340192;32;20151;-66
2021/10/03 06:07:50;;;;;;;8.02;4.68;;;9.20;99.90;;;;;;4378775;32;20100;-66
2021/10/03 06:10:16;;;;;;;6.72;4.40;;;9.30;99.90;;;;;;4353284;32;20069;-66
2021/10/03 06:12:42;;;;;;;5.78;3.83;;;9.20;99.90;;;;;;4385230;32;20160;-68
2021/10/03 06:15:09;;;;;;;5.80;3.47;;;9.20;99.90;;;;;;4339979;32;20505;-66
2021/10/03 06:17:37;;;;;;;7.75;4.57;;;9.60;99.90;;;;;;4352437;32;20071;-66
2021/10/03 06:20:05;;;;;;;6.35;4.30;;;9.40;99.90;;;;;;4353225;32;20079;-65
2021/10/03 06:22:31;;;;;;;7.20;4.30;;;9.40;99.90;;;;;;4340436;32;20153;-66
2021/10/03 06:24:57;;;;;;;7.47;4.43;;;9.40;99.90;;;;;;4364413;32;20063;-66
2021/10/03 06:27:24;;;;;;;7.82;4.72;;;9.50;99.90;;;;;;4364899;32;20094;-65
2021/10/03 06:29:52;;;;;;;7.07;4.45;;;9.60;99.90;;;;;;4379481;32;20097;-65
2021/10/03 06:32:19;;;;;;;7.25;4.60;;;9.40;99.90;;;;;;4367416;32;20108;-66
2021/10/03 06:34:45;;;;;;;7.60;4.32;;;9.50;99.90;;;;;;4349531;32;20523;-66
2021/10/03 06:37:11;;;;;;;8.07;4.40;;;9.60;99.90;;;;;;4365488;32;20113;-66
2021/10/03 06:39:37;;;;;;;6.32;3.87;;;9.60;99.90;;;;;;4352475;32;20163;-66
2021/10/03 06:42:04;;;;;;;6.75;4.20;;;9.70;99.90;;;;;;4352357;32;20078;-65
2021/10/03 06:44:30;;;;;;;9.02;4.30;;;9.60;99.90;;;;;;4364223;32;20497;-66
2021/10/03 06:46:56;;;;;;;6.68;4.10;;;9.60;99.90;;;;;;4377884;32;20078;-65
2021/10/03 06:49:22;;;;;;;6.35;4.05;;;9.60;99.90;;;;;;4364825;32;20171;-65
2021/10/03 06:51:48;;;;;;;8.18;4.57;;;9.70;99.90;;;;;;4364160;32;20068;-66
2021/10/03 06:54:18;;;;;;;7.18;5.43;;;9.70;99.90;;;;;;4340008;32;20165;-66
2021/10/03 06:56:45;;;;;;;7.78;5.25;;;9.70;99.90;;;;;;4352691;32;20101;-66
2021/10/03 06:59:11;;;;;;;7.87;5.15;;;9.50;99.90;;;;;;4315060;32;20528;-67
2021/10/03 07:01:38;;;;;;;8.13;4.90;;;9.70;99.90;;;;;;4352076;32;20108;-65
2021/10/03 07:04:04;;;;;;;7.32;5.18;;;9.70;99.90;;;;;;4352267;32;20079;-66
2021/10/03 07:06:30;;;;;;;7.72;4.75;;;9.60;99.90;;;;;;4315331;32;20078;-65
2021/10/03 07:08:57;;;;;;;8.50;4.87;;;9.80;99.90;;;;;;4327047;32;20480;-65
2021/10/03 07:11:23;;;;;;;9.13;4.55;;;9.80;99.90;;;;;;4351517;32;20084;-64
2021/10/03 07:13:49;;;;;;;9.20;5.00;;;9.90;99.90;;;;;;4351257;32;20086;-66
2021/10/03 07:16:17;;;;;;;8.05;4.57;;;9.70;99.90;;;;;;4377921;32;20081;-65
2021/10/03 07:18:44;;;;;;;6.07;3.67;;;9.80;99.90;;;;;;4339497;32;20562;-64
2021/10/03 07:21:11;;;;;;;8.98;4.70;;;9.80;99.90;;;;;;4352087;32;20077;-66
2021/10/03 07:23:37;;;;;;;6.37;4.18;;;9.90;99.90;;;;;;4327030;32;20078;-66
2021/10/03 07:26:03;;;;;;;5.93;4.00;;;9.90;99.90;;;;;;4377613;32;20160;-66
2021/10/03 07:28:29;;;;;;;7.12;4.50;;;9.80;99.90;;;;;;4351210;32;20067;-67
2021/10/03 07:30:56;;;;;;;7.18;4.60;;;9.90;99.90;;;;;;4351705;32;20168;-66
2021/10/03 07:33:22;;;;;;;7.30;4.12;;;9.80;99.90;;;;;;4351680;32;20073;-66
2021/10/03 07:35:48;;;;;;;8.00;4.45;;;10.00;99.90;;;;;;4351107;32;20155;-66
2021/10/03 07:38:15;;;;;;;6.43;3.72;;;10.00;99.90;;;;;;4351573;32;20503;-65
2021/10/03 07:40:43;;;;;;;7.18;4.35;;;10.00;99.90;;;;;;4338976;32;20156;-65
2021/10/03 07:43:10;;;;;;;5.82;3.90;;;10.00;99.90;;;;;;4351142;32;20185;-66
2021/10/03 07:45:36;;;;;;;8.77;4.72;;;10.00;99.90;;;;;;4327319;32;20520;-65
2021/10/03 07:48:02;;;;;;;7.37;3.97;;;10.00;99.90;;;;;;4363823;32;20495;-66
2021/10/03 07:50:29;;;;;;;7.72;4.80;;;10.00;99.90;;;;;;4339159;32;20072;-65
2021/10/03 07:52:55;;;;;;;6.03;3.85;;;10.10;99.90;;;;;;4351438;32;20605;-65
2021/10/03 07:55:28;;;;;;;8.07;4.80;;;10.10;99.90;;;;;;4355070;32;20101;-65
2021/10/03 07:58:05;;;;;;;9.25;5.20;;;10.10;99.90;;;;;;4344091;32;20162;-65
2021/10/03 08:00:32;;;;;;;7.43;4.30;;;10.00;99.90;;;;;;4340366;32;20076;-65
2021/10/03 08:02:58;;;;;;;6.95;4.35;;;10.20;99.90;;;;;;4327163;32;20067;-66
2021/10/03 08:05:24;;;;;;;7.45;4.47;;;10.20;99.90;;;;;;4338823;32;20085;-65
2021/10/03 08:07:51;;;;;;;7.28;5.07;;;10.20;99.90;;;;;;4363567;32;20105;-66
2021/10/03 08:10:17;;;;;;;7.78;4.55;;;10.10;99.90;;;;;;4326392;32;20456;-65
2021/10/03 08:12:44;;;;;;;7.32;4.75;;;10.20;99.90;;;;;;4362879;32;20082;-65
2021/10/03 08:15:10;;;;;;;6.60;4.10;;;10.30;99.90;;;;;;4363493;32;20569;-66
2021/10/03 08:17:36;;;;;;;6.05;3.83;;;10.20;99.90;;;;;;4326373;32;20081;-65
2021/10/03 08:20:04;;;;;;;5.90;4.25;;;10.40;99.90;;;;;;4351013;32;20094;-66
2021/10/03 08:22:30;;;;;;;7.22;4.55;;;10.30;99.90;;;;;;4337947;32;20142;-66
2021/10/03 08:24:56;;;;;;;6.00;4.60;;;10.30;99.90;;;;;;4351076;32;20575;-66
2021/10/03 08:27:22;;;;;;;8.02;5.00;;;10.40;99.90;;;;;;4362590;32;20088;-66
2021/10/03 08:29:48;;;;;;;8.35;4.75;;;10.30;99.90;;;;;;4350458;32;20069;-64
2021/10/03 08:32:15;;;;;;;6.80;4.32;;;10.30;99.90;;;;;;4350606;32;20080;-65
2021/10/03 08:34:41;;;;;;;7.50;4.95;;;10.40;99.90;;;;;;4362805;32;20054;-66
2021/10/03 08:37:07;;;;;;;7.00;4.47;;;10.50;99.90;;;;;;4362930;32;20535;-66
2021/10/03 08:39:33;;;;;;;6.45;4.07;;;10.40;99.90;;;;;;4350248;32;20500;-66
2021/10/03 08:41:59;;;;;;;7.35;5.00;;;10.50;99.90;;;;;;4351116;32;20065;-65
2021/10/03 08:44:31;;;;;;;8.95;4.05;;;10.50;99.90;;;;;;4363109;32;20077;-64
2021/10/03 08:46:57;;;;;;;10.50;5.15;;;10.50;99.90;;;;;;4339953;32;20089;-65
2021/10/03 08:49:24;;;;;;;7.50;4.28;;;10.70;99.90;;;;;;4337756;32;20078;-65
2021/10/03 08:51:50;;;;;;;6.37;4.10;;;10.60;99.90;;;;;;4350350;32;20579;-66
2021/10/03 08:54:18;;;;;;;11.05;5.15;;;10.60;99.90;;;;;;4362417;32;20081;-65
2021/10/03 08:56:48;;;;;;;9.48;4.93;;;10.60;99.90;;;;;;4351183;32;20121;-65
2021/10/03 08:59:14;;;;;;;9.32;4.93;;;10.60;99.90;;;;;;4325781;32;20100;-67
2021/10/03 09:01:50;;;;;;;7.97;5.25;;;10.60;99.90;;;;;;4338063;32;20069;-66
2021/10/03 09:04:33;;;;;;;9.38;4.57;;;10.60;99.90;;;;;;4338126;32;20070;-65
2021/10/03 09:07:07;;;;;;;7.35;4.62;;;10.50;99.90;;;;;;4350644;32;20159;-65
2021/10/03 09:09:55;;;;;;;6.72;4.25;;;10.50;99.90;;;;;;4351290;32;20086;-65
2021/10/03 09:12:26;;;;;;;7.22;4.40;;;10.50;99.90;;;;;;4338940;32;20174;-66
2021/10/03 09:14:53;;;;;;;7.35;4.43;;;10.70;99.90;;;;;;4350604;32;20105;-65
2021/10/03 09:17:21;;;;;;;7.70;5.03;;;10.80;99.90;;;;;;4340474;32;20070;-65
2021/10/03 09:20:18;;;;;;;8.75;4.55;;;10.80;99.90;;;;;;4366046;32;20089;-66
2021/10/03 09:23:21;;;;;;;5.40;4.05;;;10.80;99.90;;;;;;4342854;32;20479;-65
2021/10/03 09:25:51;;;;;;;6.03;3.80;;;10.80;99.90;;;;;;4342961;32;20086;-65
2021/10/03 09:28:22;;;;;;;6.70;3.95;;;10.70;99.90;;;;;;4349994;32;20523;-65
2021/10/03 09:31:01;;;;;;;5.78;3.92;;;10.80;99.90;;;;;;4362231;32;20246;-66
2021/10/03 09:33:39;;;;;;;6.75;4.40;;;10.70;99.90;;;;;;4350221;32;20165;-64
2021/10/03 09:36:05;;;;;;;6.93;4.12;;;10.80;99.90;;;;;;4365766;32;20081;-65
2021/10/03 09:38:46;;;;;;;8.60;4.25;;;10.80;99.90;;;;;;4341225;32;20163;-66
2021/10/03 09:41:13;;;;;;;8.93;4.60;;;10.70;99.90;;;;;;4372798;32;20094;-66
2021/10/03 09:43:45;;;;;;;7.68;4.07;;;10.80;99.90;;;;;;4340778;32;20086;-65
2021/10/03 09:46:37;;;;;;;6.28;3.78;;;11.00;99.90;;;;;;4353057;32;20568;-66
2021/10/03 09:49:07;;;;;;;6.32;3.87;;;10.90;99.90;;;;;;4342430;32;20077;-66
2021/10/03 09:51:34;;;;;;;6.53;3.60;;;11.00;99.90;;;;;;4353520;32;20489;-65
2021/10/03 09:54:02;;;;;;;7.05;4.10;;;11.00;99.90;;;;;;4316828;32;20070;-66
2021/10/03 09:56:28;;;;;;;5.75;3.75;;;10.90;99.90;;;;;;4352555;32;20096;-65
2021/10/03 09:58:55;;;;;;;7.93;4.10;;;10.80;99.90;;;;;;4353384;32;20090;-64
2021/10/03 10:01:22;;;;;;;7.47;4.40;;;10.80;99.90;;;;;;4365472;32;20074;-65
2021/10/03 10:03:49;;;;;;;7.45;4.45;;;10.80;99.90;;;;;;4353481;32;20078;-65
2021/10/03 10:06:17;;;;;;;7.25;4.03;;;10.90;99.90;;;;;;4352658;32;20090;-66
2021/10/03 10:08:43;;;;;;;7.55;4.15;;;10.90;99.90;;;;;;4340605;32;20088;-65
2021/10/03 10:11:24;;;;;;;7.70;4.03;;;10.70;99.90;;;;;;4327982;32;20769;-66
2021/10/03 10:13:55;;;;;;;5.85;3.85;;;10.80;99.90;;;;;;4338816;32;20136;-66
2021/10/03 10:16:34;;;;;;;6.95;4.28;;;11.10;99.90;;;;;;4350620;32;20093;-65
2021/10/03 10:19:40;;;;;;;8.60;4.22;;;11.10;99.90;;;;;;4350729;32;20071;-66
2021/10/03 10:22:16;;;;;;;6.97;3.70;;;10.80;99.90;;;;;;4350867;32;20148;-66
2021/10/03 10:24:58;;;;;;;9.77;4.43;;;10.80;99.90;;;;;;4337375;32;20098;-65
2021/10/03 10:27:25;;;;;;;6.82;4.28;;;10.90;99.90;;;;;;4337281;32;20071;-66
2021/10/03 10:30:02;;;;;;;9.07;4.10;;;11.00;99.90;;;;;;4337204;32;20159;-66
2021/10/03 10:32:55;;;;;;;6.97;4.05;;;11.10;99.90;;;;;;4351144;32;20082;-66
2021/10/03 10:35:26;;;;;;;6.07;3.90;;;11.10;99.90;;;;;;4347117;32;20097;-66
2021/10/03 10:37:53;;;;;;;5.65;3.97;;;11.00;99.90;;;;;;4350112;32;20075;-65
2021/10/03 10:40:22;;;;;;;8.23;3.78;;;11.00;99.90;;;;;;4349595;32;20098;-66
2021/10/03 10:43:04;;;;;;;7.20;4.05;;;10.90;99.90;;;;;;4349506;32;20082;-66
2021/10/03 10:45:31;;;;;;;6.72;3.65;;;10.90;99.90;;;;;;4337042;32;20160;-65
2021/10/03 10:48:09;;;;;;;8.60;5.30;;;11.00;99.90;;;;;;4337001;32;20505;-66
2021/10/03 10:50:51;;;;;;;7.82;3.80;;;11.00;99.90;;;;;;4336924;32;20083;-65
2021/10/03 10:53:31;;;;;;;6.93;3.87;;;10.90;99.90;;;;;;4351184;32;20469;-66
2021/10/03 10:56:18;;;;;;;6.32;4.00;;;10.90;99.90;;;;;;4337588;32;20093;-65
2021/10/03 10:58:53;;;;;;;5.65;3.70;;;11.10;99.90;;;;;;4349976;32;20179;-66
2021/10/03 11:01:35;;;;;;;5.35;3.50;;;11.10;99.90;;;;;;4363557;32;20084;-66
2021/10/03 11:04:04;;;;;;;7.05;3.95;;;11.10;99.90;;;;;;4336970;32;20063;-65
2021/10/03 11:06:30;;;;;;;6.32;3.78;;;11.10;99.90;;;;;;4336987;32;20086;-65
2021/10/03 11:08:57;;;;;;;6.30;4.18;;;11.20;99.90;;;;;;4349360;32;20070;-66
2021/10/03 11:11:24;;;;;;;6.20;4.07;;;11.00;99.90;;;;;;4348886;32;20090;-67
2021/10/03 11:13:55;;;;;;;7.53;4.18;;;10.90;99.90;;;;;;4349116;32;20075;-65
2021/10/03 11:16:34;;;;;;;6.28;3.97;;;11.00;99.90;;;;;;4325190;32;20082;-65
2021/10/03 11:19:13;;;;;;;6.90;4.35;;;10.80;99.90;;;;;;4349277;32;20117;-65
2021/10/03 11:21:57;;;;;;;5.20;3.55;;;11.00;99.90;;;;;;4338133;32;20066;-65
2021/10/03 11:24:29;;;;;;;6.32;3.87;;;11.00;99.90;;;;;;4357587;32;20131;-65
2021/10/03 11:27:04;;;;;;;6.93;4.30;;;10.90;99.90;;;;;;4336879;32;20512;-66
2021/10/03 11:29:33;;;;;;;6.80;4.10;;;11.00;99.90;;;;;;4336338;32;20075;-65
2021/10/03 11:32:10;;;;;;;6.60;4.15;;;10.90;99.90;;;;;;4349232;32;20549;-66
2021/10/03 11:34:47;;;;;;;6.22;3.50;;;10.90;99.90;;;;;;4348866;32;20562;-64
2021/10/03 11:37:16;;;;;;;7.05;3.92;;;10.90;99.90;;;;;;4348689;32;20089;-65
2021/10/03 11:39:47;;;;;;;6.45;3.90;;;10.80;99.90;;;;;;4360989;32;20089;-66
2021/10/03 11:42:26;;;;;;;8.15;4.00;;;10.80;99.90;;;;;;4336538;32;20106;-66
2021/10/03 11:45:04;;;;;;;6.45;3.87;;;10.80;99.90;;;;;;4361171;32;20165;-65
2021/10/03 11:47:51;;;;;;;9.25;4.35;;;10.90;99.90;;;;;;4349178;32;20520;-65
2021/10/03 11:50:27;;;;;;;6.93;3.75;;;10.80;99.90;;;;;;4348823;32;20183;-66
2021/10/03 11:53:14;;;;;;;6.40;4.10;;;10.90;99.90;;;;;;4336220;32;20515;-66
2021/10/03 11:55:40;;;;;;;;;;;10.80;99.90;;;;;;4348976;32;20573;-66
2021/10/03 11:58:12;;;;;;;7.03;4.12;;;10.80;99.90;;;;;;4336058;32;20059;-66
2021/10/03 12:00:51;;;;;;;6.62;4.35;;;10.80;99.90;;;;;;4348725;32;20161;-66
2021/10/03 12:03:18;;;;;;;8.07;4.15;;;10.80;99.90;;;;;;4353512;32;20086;-66
2021/10/03 12:05:44;;;;;;;6.47;4.25;;;10.80;99.90;;;;;;4345756;32;20105;-66
2021/10/03 12:08:18;;;;;;;5.95;4.20;;;10.70;99.90;;;;;;4349662;32;20159;-65
2021/10/03 12:10:50;;;;;;;6.90;4.10;;;10.80;99.90;;;;;;4336353;32;20085;-66
2021/10/03 12:13:26;;;;;;;7.25;4.25;;;10.70;99.90;;;;;;4335979;32;20509;-66
2021/10/03 12:15:58;;;;;;;7.10;3.97;;;10.80;99.90;;;;;;4362098;32;20602;-65
2021/10/03 12:18:25;;;;;;;7.00;4.10;;;10.80;99.90;;;;;;4336697;32;20081;-66
2021/10/03 12:21:14;;;;;;;8.73;4.55;;;10.70;99.90;;;;;;4348088;32;20143;-66
2021/10/03 12:23:52;;;;;;;7.93;4.60;;;10.70;99.90;;;;;;4350315;32;20088;-66
2021/10/03 12:26:29;;;;;;;7.75;4.18;;;10.80;99.90;;;;;;4348311;32;20528;-67
2021/10/03 12:29:05;;;;;;;7.62;4.50;;;10.80;99.90;;;;;;4336043;32;20448;-66
2021/10/03 12:31:48;;;;;;;6.53;4.47;;;10.70;99.90;;;;;;4348120;32;20566;-65
2021/10/03 12:34:14;;;;;;;10.10;4.80;;;10.70;99.90;;;;;;4348801;32;20090;-66
2021/10/03 12:36:55;;;;;;;5.75;4.03;;;10.80;99.90;;;;;;4348108;32;20070;-66
2021/10/03 12:39:35;;;;;;;9.93;4.90;;;10.70;99.90;;;;;;4347969;32;20070;-66
2021/10/03 12:42:11;;;;;;;8.40;4.10;;;10.70;99.90;;;;;;4349206;32;20165;-66
2021/10/03 12:44:38;;;;;;;;;;;10.70;99.90;;;;;;4348189;32;20098;-65
2021/10/03 12:47:06;;;;;;;8.27;4.70;;;10.70;99.90;;;;;;4323802;32;19976;-67
2021/10/03 12:49:32;;;;;;;7.03;4.30;;;10.70;99.90;;;;;;4347839;32;20476;-66
2021/10/03 12:51:59;;;;;;;6.62;4.37;;;10.60;99.90;;;;;;4335562;32;20058;-66
2021/10/03 12:54:26;;;;;;;7.78;5.20;;;10.60;99.90;;;;;;4347958;32;20181;-66
2021/10/03 12:56:56;;;;;;;10.35;4.97;;;10.60;99.90;;;;;;4335894;32;20078;-65
2021/10/03 12:59:24;;;;;;;8.02;4.50;;;10.60;99.90;;;;;;4348678;32;20074;-65
2021/10/03 13:01:50;;;;;;;7.18;4.50;;;10.60;99.90;;;;;;4335455;32;20446;-65
2021/10/03 13:04:16;;;;;;;8.73;4.25;;;10.60;99.90;;;;;;4348401;32;20074;-67